Time;durP1;ratioP1;P1;durP2;ratioP2;P2;SDS_P1;SDS_P2;PMS_P1;PMS_P2;Temp;Humidity;BMP_temperature;BMP_pressure;BME280_temperature;BME280_humidity;BME280_pressure;Samples;Min_cycle;Max_cycle;Signal;HPM_P1;HPM_P2
2021/10/02 00:01:48;;;;;;;;;;;;;;;13.36;73.87;96922.16;30001;973;1892;-60
2021/10/02 00:31:33;;;;;;;;;;;;;;;12.88;76.21;96923.78;30001;983;1880;-66
2021/10/02 00:36:03;;;;;;;;;;;;;;;12.89;75.93;96933.56;30001;982;1876;-64
2021/10/02 00:37:02;;;;;;;;;;;;;;;12.89;76.13;96930.84;30001;982;1880;-65
2021/10/02 00:44:43;;;;;;;;;;;;;;;13.04;75.28;96935.97;30001;982;1872;-65
2021/10/02 00:45:13;;;;;;;;;;;;;;;13.04;75.72;96933.25;30001;982;1880;-65
2021/10/02 00:45:44;;;;;;;;;;;;;;;13.04;75.28;96941.41;30001;983;1875;-64
2021/10/02 00:46:15;;;;;;;;;;;;;;;13.05;75.30;96934.84;30001;983;1858;-66
2021/10/02 00:46:49;;;;;;;;;;;;;;;13.05;75.38;96932.94;30001;983;1871;-65
2021/10/02 00:47:21;;;;;;;;;;;;;;;13.05;75.53;96937.56;30001;983;1880;-65
2021/10/02 00:47:54;;;;;;;;;;;;;;;13.06;75.34;96933.75;30001;983;1875;-66
2021/10/02 00:48:24;;;;;;;;;;;;;;;13.05;75.13;96937.56;30001;983;1880;-66
2021/10/02 00:48:56;;;;;;;;;;;;;;;13.06;75.53;96933.75;30001;983;1854;-65
2021/10/02 00:49:27;;;;;;;;;;;;;;;13.07;75.39;96938.06;30001;983;1876;-64
2021/10/02 00:49:58;;;;;;;;;;;;;;;13.06;75.75;96939.19;30001;983;1876;-65
2021/10/02 00:50:28;;;;;;;;;;;;;;;13.07;75.24;96938.06;30001;983;1858;-63
2021/10/02 00:51:00;;;;;;;;;;;;;;;13.08;75.31;96936.97;30001;982;1871;-65
2021/10/02 00:51:31;;;;;;;;;;;;;;;13.09;75.20;96925.75;30001;982;1880;-63
2021/10/02 00:52:06;;;;;;;;;;;;;;;13.10;75.07;96932.00;30001;982;1876;-65
2021/10/02 00:52:38;;;;;;;;;;;;;;;13.11;75.26;96930.91;30001;982;1880;-64
2021/10/02 00:53:08;;;;;;;;;;;;;;;13.12;75.37;96927.06;30001;983;1875;-63
2021/10/02 00:53:39;;;;;;;;;;;;;;;13.12;75.21;96932.50;30001;983;1880;-65
2021/10/02 00:54:10;;;;;;;;;;;;;;;13.13;75.18;96922.41;30001;983;1875;-66
2021/10/02 00:54:44;;;;;;;;;;;;;;;13.14;74.80;96929.47;30001;983;1858;-64
2021/10/02 00:55:15;;;;;;;;;;;;;;;13.14;75.00;96930.28;30001;983;1871;-62
2021/10/02 00:55:46;;;;;;;;;;;;;;;13.16;75.00;96933.53;30001;983;1880;-64
2021/10/02 00:56:16;;;;;;;;;;;;;;;13.17;74.97;96926.16;30001;983;1876;-65
2021/10/02 00:56:47;;;;;;;;;;;;;;;13.18;74.69;96925.84;30001;983;1880;-66
2021/10/02 00:57:18;;;;;;;;;;;;;;;13.20;74.82;96926.34;30001;983;1876;-63
2021/10/02 00:57:50;;;;;;;;;;;;;;;13.22;74.57;96926.03;30001;983;1880;-67
2021/10/02 00:58:21;;;;;;;;;;;;;;;13.24;74.64;96924.59;30001;982;1876;-64
2021/10/02 00:58:51;;;;;;;;;;;;;;;13.25;74.35;96931.66;30001;975;1869;-64
2021/10/02 00:59:22;;;;;;;;;;;;;;;13.28;74.53;96931.06;30001;982;1885;-65
2021/10/02 00:59:54;;;;;;;;;;;;;;;13.31;74.11;96930.44;30001;982;1859;-66
2021/10/02 01:00:25;;;;;;;;;;;;;;;13.32;74.32;96926.59;30001;982;1881;-65
2021/10/02 01:01:01;;;;;;;;;;;;;;;13.32;74.49;96929.31;30001;983;1858;-63
2021/10/02 01:01:51;;;;;;;;;;;;;;;13.32;74.26;96932.06;30001;983;1880;-64
2021/10/02 01:02:28;;;;;;;;;;;;;;;13.33;74.12;96936.37;30001;983;1854;-66
2021/10/02 01:03:22;;;;;;;;;;;;;;;13.33;74.40;96928.22;30001;983;1880;-64
2021/10/02 01:04:21;;;;;;;;;;;;;;;13.35;74.28;96933.34;30001;983;1880;-65
2021/10/02 01:05:24;;;;;;;;;;;;;;;13.36;74.19;96933.03;30001;978;1774;-66
2021/10/02 01:06:13;;;;;;;;;;;;;;;13.38;73.91;96930.81;30001;982;1849;-60
2021/10/02 01:07:04;;;;;;;;;;;;;;;13.39;73.76;96932.44;30001;982;1876;-64
2021/10/02 01:08:01;;;;;;;;;;;;;;;13.40;73.77;96922.34;30001;982;1854;-66
2021/10/02 01:08:36;;;;;;;;;;;;;;;13.40;74.10;96930.50;30001;983;1853;-63
2021/10/02 01:09:29;;;;;;;;;;;;;;;13.39;73.67;96926.97;30001;983;1880;-65
2021/10/02 01:10:12;;;;;;;;;;;;;;;13.38;74.12;96939.00;30001;983;1880;-65
2021/10/02 01:10:49;;;;;;;;;;;;;;;13.39;73.90;96926.97;30001;983;1880;-62
2021/10/02 01:11:41;;;;;;;;;;;;;;;13.40;74.21;96930.50;30001;983;1884;-66
2021/10/02 01:12:44;;;;;;;;;;;;;;;13.44;73.96;96930.69;30001;983;1871;-64
2021/10/02 01:13:20;;;;;;;;;;;;;;;13.53;73.36;96931.53;30001;982;1880;-64
2021/10/02 01:14:06;;;;;;;;;;;;;;;13.56;73.30;96928.19;30001;982;1858;-63
2021/10/02 01:14:46;;;;;;;;;;;;;;;13.57;72.94;96932.53;30001;982;1880;-63
2021/10/02 01:15:36;;;;;;;;;;;;;;;13.60;72.76;96934.63;30001;982;1880;-64
2021/10/02 01:16:27;;;;;;;;;;;;;;;13.62;72.59;96926.97;30001;983;1884;-66
2021/10/02 01:17:00;;;;;;;;;;;;;;;13.63;72.62;96925.84;30001;983;1876;-65
2021/10/02 01:17:35;;;;;;;;;;;;;;;13.63;72.88;96929.37;30001;983;1884;-64
2021/10/02 01:18:17;;;;;;;;;;;;;;;13.67;72.53;96926.84;30001;983;1880;-65
2021/10/02 01:18:59;;;;;;;;;;;;;;;13.69;72.63;96924.59;30001;983;1884;-64
2021/10/02 01:19:37;;;;;;;;;;;;;;;13.69;72.31;96930.84;30001;983;1858;-64
2021/10/02 01:20:21;;;;;;;;;;;;;;;13.70;72.56;96931.66;30001;982;1880;-63
2021/10/02 01:21:02;;;;;;;;;;;;;;;13.70;72.66;96927.00;30001;982;1880;-64
2021/10/02 01:21:48;;;;;;;;;;;;;;;13.69;72.80;96928.13;30001;982;1885;-65
2021/10/02 01:22:45;;;;;;;;;;;;;;;13.69;72.32;96932.78;30001;982;1880;-65
2021/10/02 01:23:37;;;;;;;;;;;;;;;13.67;72.73;96926.84;30001;982;1885;-64
2021/10/02 01:24:27;;;;;;;;;;;;;;;13.67;72.62;96933.09;30001;983;1880;-63
2021/10/02 01:25:16;;;;;;;;;;;;;;;13.67;73.03;96932.28;30001;983;1853;-60
2021/10/02 01:26:13;;;;;;;;;;;;;;;13.67;72.73;96932.28;30001;983;1871;-64
2021/10/02 01:27:07;;;;;;;;;;;;;;;13.67;72.74;96932.28;30001;983;1749;-64
2021/10/02 01:28:10;;;;;;;;;;;;;;;13.67;72.51;96935.81;30001;982;1876;-62
2021/10/02 01:28:41;;;;;;;;;;;;;;;13.71;72.33;96933.28;30001;982;1880;-65
2021/10/02 01:29:14;;;;;;;;;;;;;;;13.71;72.24;96931.34;30001;982;1880;-65
2021/10/02 01:29:46;;;;;;;;;;;;;;;13.72;72.07;96923.97;30001;982;1885;-65
2021/10/02 01:30:33;;;;;;;;;;;;;;;13.72;72.11;96929.44;30001;982;1881;-65
2021/10/02 01:31:25;;;;;;;;;;;;;;;13.70;72.33;96931.66;30001;983;1862;-66
2021/10/02 01:33:57;;;;;;;;;;;;;;;13.64;73.22;96922.00;30001;983;1880;-65
2021/10/02 01:36:42;;;;;;;;;;;;;;;13.59;73.05;96927.56;30001;982;1880;-65
2021/10/02 01:47:26;;;;;;;;;;;;;;;13.27;74.58;96907.66;30001;983;1880;-65
2021/10/02 01:47:57;;;;;;;;;;;;;;;13.28;74.78;96914.69;30001;983;1884;-67
2021/10/02 01:48:28;;;;;;;;;;;;;;;13.27;74.37;96907.66;30001;983;1880;-66
2021/10/02 01:48:59;;;;;;;;;;;;;;;13.27;74.82;96913.09;30001;983;1884;-65
2021/10/02 01:49:31;;;;;;;;;;;;;;;13.27;74.80;96913.09;30001;983;1858;-66
2021/10/02 01:50:04;;;;;;;;;;;;;;;13.26;74.76;96911.47;30001;983;1880;-66
2021/10/02 01:50:37;;;;;;;;;;;;;;;13.25;74.69;96915.31;30001;982;1880;-68
2021/10/02 01:51:11;;;;;;;;;;;;;;;13.24;74.75;96910.97;30001;982;1863;-66
2021/10/02 01:51:43;;;;;;;;;;;;;;;13.23;74.65;96901.19;30001;982;1791;-64
2021/10/02 01:52:15;;;;;;;;;;;;;;;13.23;74.69;96906.66;30001;982;1885;-67
2021/10/02 01:52:46;;;;;;;;;;;;;;;13.22;74.61;96907.75;30001;983;1879;-66
2021/10/02 01:53:18;;;;;;;;;;;;;;;13.22;74.44;96918.66;30001;983;1884;-64
2021/10/02 01:53:49;;;;;;;;;;;;;;;13.20;74.71;96907.25;30001;983;1880;-66
2021/10/02 01:54:21;;;;;;;;;;;;;;;13.22;74.46;96909.69;30001;983;1884;-64
2021/10/02 01:54:54;;;;;;;;;;;;;;;13.21;74.65;96908.88;30001;983;1858;-65
2021/10/02 01:55:25;;;;;;;;;;;;;;;13.23;74.74;96906.66;30001;983;1880;-66
2021/10/02 01:55:56;;;;;;;;;;;;;;;13.24;74.67;96908.25;30001;983;1880;-66
2021/10/02 01:56:28;;;;;;;;;;;;;;;13.25;74.41;96911.78;30001;983;1884;-65
2021/10/02 01:56:59;;;;;;;;;;;;;;;13.24;74.40;96908.25;30001;983;1880;-65
2021/10/02 01:57:34;;;;;;;;;;;;;;;13.25;74.67;96909.88;30001;983;1884;-65
2021/10/02 01:58:07;;;;;;;;;;;;;;;13.25;74.66;96909.06;30001;982;1880;-66
2021/10/02 01:58:38;;;;;;;;;;;;;;;13.25;74.64;96909.88;30001;982;1863;-67
2021/10/02 01:59:11;;;;;;;;;;;;;;;13.24;74.62;96913.72;30001;982;1854;-66
2021/10/02 01:59:43;;;;;;;;;;;;;;;13.22;75.03;96907.75;30001;982;1885;-65
2021/10/02 02:00:14;;;;;;;;;;;;;;;13.21;74.96;96906.16;30001;983;1879;-64
2021/10/02 02:00:47;;;;;;;;;;;;;;;13.20;75.07;96912.72;30001;983;1884;-66
2021/10/02 02:01:18;;;;;;;;;;;;;;;13.17;75.29;96910.59;30001;983;1880;-66
2021/10/02 02:01:49;;;;;;;;;;;;;;;13.17;74.88;96918.78;30001;983;1884;-65
2021/10/02 02:02:24;;;;;;;;;;;;;;;13.16;74.79;96917.19;30001;983;1880;-66
2021/10/02 02:02:57;;;;;;;;;;;;;;;13.16;75.08;96916.38;30001;983;1862;-66
2021/10/02 02:03:30;;;;;;;;;;;;;;;13.14;75.43;96911.22;30001;983;1875;-66
2021/10/02 02:04:01;;;;;;;;;;;;;;;13.14;75.02;96913.13;30001;983;1884;-65
2021/10/02 02:04:33;;;;;;;;;;;;;;;13.12;75.25;96916.16;30001;983;1858;-66
2021/10/02 02:05:07;;;;;;;;;;;;;;;13.13;75.10;96909.59;30001;983;1880;-64
2021/10/02 02:05:39;;;;;;;;;;;;;;;13.12;75.02;96913.44;30001;982;1880;-66
2021/10/02 02:06:10;;;;;;;;;;;;;;;13.12;75.08;96910.72;30001;982;1884;-65
2021/10/02 02:06:42;;;;;;;;;;;;;;;13.10;75.06;96912.94;30001;982;1880;-65
2021/10/02 02:07:13;;;;;;;;;;;;;;;13.11;75.16;96913.75;30001;982;1885;-66
2021/10/02 02:07:48;;;;;;;;;;;;;;;13.09;75.08;96908.59;30001;982;1859;-61
2021/10/02 02:08:21;;;;;;;;;;;;;;;13.09;75.63;96908.59;30001;983;1879;-65
2021/10/02 02:08:52;;;;;;;;;;;;;;;13.08;75.51;96907.81;30001;983;1879;-65
2021/10/02 02:09:26;;;;;;;;;;;;;;;13.07;75.41;96908.91;30001;983;1884;-67
2021/10/02 02:09:58;;;;;;;;;;;;;;;13.07;75.60;96908.91;30001;983;1880;-66
2021/10/02 02:10:29;;;;;;;;;;;;;;;13.07;75.55;96906.19;30001;983;1884;-66
2021/10/02 02:11:00;;;;;;;;;;;;;;;13.06;75.97;96906.50;30001;983;1880;-65
2021/10/02 02:11:32;;;;;;;;;;;;;;;13.07;75.66;96908.09;30001;983;1884;-65
2021/10/02 02:12:05;;;;;;;;;;;;;;;13.05;75.78;96904.88;30001;982;1880;-65
2021/10/02 02:12:36;;;;;;;;;;;;;;;13.07;76.01;96905.38;30001;982;1863;-65
2021/10/02 02:13:08;;;;;;;;;;;;;;;13.05;75.86;96905.69;30001;982;1876;-65
2021/10/02 02:13:39;;;;;;;;;;;;;;;13.06;75.63;96895.59;30001;982;1885;-65
2021/10/02 02:14:11;;;;;;;;;;;;;;;13.07;75.47;96905.38;30001;982;1880;-66
2021/10/02 02:14:43;;;;;;;;;;;;;;;13.06;75.42;96901.84;30001;982;1885;-66
2021/10/02 02:15:14;;;;;;;;;;;;;;;13.07;75.31;96894.50;30001;982;1880;-65
2021/10/02 02:15:48;;;;;;;;;;;;;;;13.08;75.57;96894.19;30001;983;1862;-66
2021/10/02 02:16:19;;;;;;;;;;;;;;;13.08;75.35;96888.72;30001;983;1875;-67
2021/10/02 02:16:51;;;;;;;;;;;;;;;13.09;75.33;96884.91;30001;983;1884;-65
2021/10/02 02:17:23;;;;;;;;;;;;;;;13.10;75.10;96880.25;30001;983;1880;-66
2021/10/02 02:18:14;;;;;;;;;;;;;;;13.12;75.35;96888.94;30001;983;1884;-65
2021/10/02 02:18:47;;;;;;;;;;;;;;;13.12;74.94;96872.59;30001;983;1880;-65
2021/10/02 02:19:18;;;;;;;;;;;;;;;13.13;75.00;96874.19;30001;983;1884;-64
2021/10/02 02:19:49;;;;;;;;;;;;;;;13.14;74.92;96875.81;30001;982;1880;-66
2021/10/02 02:20:22;;;;;;;;;;;;;;;13.15;74.96;96871.97;30001;982;1862;-66
2021/10/02 02:20:55;;;;;;;;;;;;;;;13.15;74.88;96871.97;30001;982;1876;-62
2021/10/02 02:21:26;;;;;;;;;;;;;;;13.17;74.97;96875.19;30001;982;1884;-64
2021/10/02 02:21:57;;;;;;;;;;;;;;;13.17;74.55;96875.19;30001;982;1880;-65
2021/10/02 02:22:29;;;;;;;;;;;;;;;13.17;74.82;96864.28;30001;982;1885;-66
2021/10/02 02:23:01;;;;;;;;;;;;;;;13.17;74.78;96869.72;30001;983;1879;-61
2021/10/02 02:23:32;;;;;;;;;;;;;;;13.19;74.71;96875.69;30001;983;1862;-67
2021/10/02 02:24:03;;;;;;;;;;;;;;;13.19;74.40;96872.97;30001;983;1875;-67
2021/10/02 02:24:34;;;;;;;;;;;;;;;13.20;74.44;96871.84;30001;983;1884;-62
2021/10/02 02:25:05;;;;;;;;;;;;;;;13.21;74.71;96875.37;30001;983;1880;-64
2021/10/02 02:25:36;;;;;;;;;;;;;;;13.22;74.50;96880.50;30001;983;1884;-65
2021/10/02 02:26:09;;;;;;;;;;;;;;;13.21;74.60;96873.47;30001;983;1880;-66
2021/10/02 02:26:40;;;;;;;;;;;;;;;13.22;74.64;96882.44;30001;983;1862;-66
2021/10/02 02:27:11;;;;;;;;;;;;;;;13.21;74.67;96876.19;30001;982;1875;-65
2021/10/02 02:27:42;;;;;;;;;;;;;;;13.22;74.69;96877.78;30001;982;1884;-63
2021/10/02 02:28:13;;;;;;;;;;;;;;;13.22;74.27;96877.78;30001;982;1880;-65
2021/10/02 02:28:44;;;;;;;;;;;;;;;13.23;74.40;96873.94;30001;982;1884;-66
2021/10/02 02:29:15;;;;;;;;;;;;;;;13.24;74.29;96874.75;30001;982;1880;-64
2021/10/02 02:29:47;;;;;;;;;;;;;;;13.24;74.60;96870.13;30001;982;1885;-66
2021/10/02 02:30:18;;;;;;;;;;;;;;;13.24;74.64;96875.56;30001;982;1880;-66
2021/10/02 02:30:50;;;;;;;;;;;;;;;13.24;74.33;96872.03;30001;983;1884;-66
2021/10/02 02:31:21;;;;;;;;;;;;;;;13.23;74.32;96876.69;30001;983;1879;-66
2021/10/02 02:31:52;;;;;;;;;;;;;;;13.23;74.60;96873.94;30001;983;1862;-65
2021/10/02 02:32:23;;;;;;;;;;;;;;;13.24;74.68;96874.75;30001;983;1875;-65
2021/10/02 02:32:54;;;;;;;;;;;;;;;13.23;74.44;96879.41;30001;983;1884;-65
2021/10/02 02:33:26;;;;;;;;;;;;;;;13.23;74.62;96867.69;30001;983;1880;-66
2021/10/02 02:33:56;;;;;;;;;;;;;;;13.24;74.69;96875.56;30001;983;1884;-65
2021/10/02 02:34:30;;;;;;;;;;;;;;;13.22;74.61;96877.78;30001;983;1858;-65
2021/10/02 02:35:02;;;;;;;;;;;;;;;13.23;74.99;96873.94;30001;958;1904;-66
2021/10/02 02:35:33;;;;;;;;;;;;;;;13.22;74.70;96877.78;30001;982;1880;-66
2021/10/02 02:36:05;;;;;;;;;;;;;;;13.22;74.88;96868.81;30001;982;1884;-65
2021/10/02 02:36:36;;;;;;;;;;;;;;;13.20;74.92;96869.13;30001;982;1880;-66
2021/10/02 02:37:07;;;;;;;;;;;;;;;13.21;75.26;96870.72;30002;981;1896;-66
2021/10/02 02:37:37;;;;;;;;;;;;;;;13.21;75.04;96872.66;30002;982;1880;-65
2021/10/02 02:38:08;;;;;;;;;;;;;;;13.21;75.44;96867.19;30001;983;1862;-66
2021/10/02 02:38:39;;;;;;;;;;;;;;;13.19;75.36;96859.34;30002;983;1875;-63
2021/10/02 02:39:10;;;;;;;;;;;;;;;13.19;75.38;96872.97;30002;983;1884;-66
2021/10/02 02:39:42;;;;;;;;;;;;;;;13.19;75.49;96872.97;30002;983;1880;-65
2021/10/02 02:40:13;;;;;;;;;;;;;;;13.18;75.33;96865.91;30002;983;1797;-65
2021/10/02 02:40:44;;;;;;;;;;;;;;;13.17;75.31;96869.72;30002;983;1880;-66
2021/10/02 02:41:14;;;;;;;;;;;;;;;13.19;75.77;96867.50;30002;983;1884;-65
2021/10/02 02:41:45;;;;;;;;;;;;;;;13.18;75.34;96863.19;30002;983;1858;-64
2021/10/02 02:42:16;;;;;;;;;;;;;;;13.18;75.51;96859.66;30002;982;1880;-65
2021/10/02 02:42:47;;;;;;;;;;;;;;;13.15;75.23;96866.50;30002;982;1880;-66
2021/10/02 02:43:19;;;;;;;;;;;;;;;13.15;75.62;96869.25;30002;982;1885;-65
2021/10/02 02:43:50;;;;;;;;;;;;;;;13.15;75.99;96861.06;30002;982;1880;-65
2021/10/02 02:44:21;;;;;;;;;;;;;;;13.15;75.73;96855.63;30002;982;1884;-65
2021/10/02 02:44:52;;;;;;;;;;;;;;;13.15;75.59;96866.50;30002;983;1879;-64
2021/10/02 02:45:23;;;;;;;;;;;;;;;13.16;75.81;96868.16;30002;983;1884;-64
2021/10/02 02:46:00;;;;;;;;;;;;;;;13.16;75.44;96868.16;30002;983;1879;-65
2021/10/02 02:46:35;;;;;;;;;;;;;;;13.16;75.53;96862.72;30002;983;1884;-66
2021/10/02 02:47:07;;;;;;;;;;;;;;;13.16;75.55;96859.97;30002;983;1858;-65
2021/10/02 02:47:44;;;;;;;;;;;;;;;13.16;75.38;96861.91;30002;983;1880;-65
2021/10/02 02:48:19;;;;;;;;;;;;;;;13.15;74.97;96871.97;30002;983;1880;-65
2021/10/02 02:48:58;;;;;;;;;;;;;;;13.15;75.23;96871.16;30002;983;1884;-64
2021/10/02 02:49:42;;;;;;;;;;;;;;;13.14;75.10;96864.91;30002;983;1858;-64
2021/10/02 02:50:19;;;;;;;;;;;;;;;13.14;74.96;96870.34;30002;982;1858;-66
2021/10/02 02:50:53;;;;;;;;;;;;;;;13.13;74.65;96874.19;30002;982;1880;-65
2021/10/02 02:51:33;;;;;;;;;;;;;;;13.14;74.98;96881.25;30002;982;1885;-66
2021/10/02 02:52:08;;;;;;;;;;;;;;;13.14;74.49;96875.81;30002;982;1880;-66
2021/10/02 02:52:44;;;;;;;;;;;;;;;13.14;74.60;96875.81;30002;983;1884;-66
2021/10/02 02:53:48;;;;;;;;;;;;;;;13.13;75.01;96871.47;30002;983;1880;-65
2021/10/02 02:54:25;;;;;;;;;;;;;;;13.11;74.53;96870.97;30002;983;1880;-67
2021/10/02 02:55:03;;;;;;;;;;;;;;;13.12;74.37;96871.78;30002;983;1858;-66
2021/10/02 02:55:39;;;;;;;;;;;;;;;13.12;74.29;96869.03;30002;983;1880;-64
2021/10/02 02:56:25;;;;;;;;;;;;;;;13.10;74.70;96863.91;30002;983;1880;-65
2021/10/02 02:56:59;;;;;;;;;;;;;;;13.07;74.41;96875.41;30002;983;1884;-65
2021/10/02 02:57:37;;;;;;;;;;;;;;;13.06;74.72;96873.81;30002;982;1880;-66
2021/10/02 02:58:09;;;;;;;;;;;;;;;13.05;74.67;96870.28;30002;982;1885;-66
2021/10/02 02:58:41;;;;;;;;;;;;;;;13.04;74.73;96876.03;30002;982;1880;-60
2021/10/02 02:59:25;;;;;;;;;;;;;;;13.03;75.07;96868.97;30002;982;1885;-66
2021/10/02 03:00:01;;;;;;;;;;;;;;;13.02;75.49;96867.38;30002;983;1858;-65
2021/10/02 03:00:40;;;;;;;;;;;;;;;13.01;75.54;96868.47;30002;983;1879;-66
2021/10/02 03:01:12;;;;;;;;;;;;;;;12.99;75.85;96873.44;30002;983;1880;-65
2021/10/02 03:01:44;;;;;;;;;;;;;;;12.97;75.72;96870.22;30002;983;1884;-65
2021/10/02 03:02:19;;;;;;;;;;;;;;;12.96;75.81;96869.41;30002;983;1880;-65
2021/10/02 03:03:01;;;;;;;;;;;;;;;12.95;76.11;96866.97;30002;983;1884;-65
2021/10/02 03:03:34;;;;;;;;;;;;;;;12.92;76.31;96870.31;30002;983;1880;-65
2021/10/02 03:04:10;;;;;;;;;;;;;;;12.91;76.66;96860.53;30002;983;1884;-66
2021/10/02 03:04:42;;;;;;;;;;;;;;;12.89;76.61;96873.66;30002;983;1880;-66
2021/10/02 03:05:16;;;;;;;;;;;;;;;12.87;77.19;96859.53;30002;982;1863;-64
2021/10/02 03:05:47;;;;;;;;;;;;;;;12.85;76.99;96864.50;30002;982;1876;-66
2021/10/02 03:06:19;;;;;;;;;;;;;;;12.83;76.58;96864.78;30002;982;1885;-65
2021/10/02 03:06:50;;;;;;;;;;;;;;;12.82;76.83;96868.63;30002;982;1880;-65
2021/10/02 03:07:23;;;;;;;;;;;;;;;12.81;76.95;96866.25;30002;983;1884;-64
2021/10/02 03:07:59;;;;;;;;;;;;;;;12.80;77.44;96872.81;30002;983;1880;-66
2021/10/02 03:08:41;;;;;;;;;;;;;;;12.78;76.95;96866.84;30002;983;1884;-66
2021/10/02 03:09:13;;;;;;;;;;;;;;;12.77;77.29;96859.81;30002;983;1880;-65
2021/10/02 03:09:45;;;;;;;;;;;;;;;12.76;77.66;96861.72;30002;983;1884;-65
2021/10/02 03:10:17;;;;;;;;;;;;;;;12.74;77.22;96870.19;30002;983;1858;-66
2021/10/02 03:10:49;;;;;;;;;;;;;;;12.73;77.10;96868.59;30002;983;1880;-66
2021/10/02 03:11:21;;;;;;;;;;;;;;;12.73;77.08;96870.50;30002;983;1880;-65
2021/10/02 03:11:53;;;;;;;;;;;;;;;12.71;77.33;96868.09;30002;983;1884;-68
2021/10/02 03:12:29;;;;;;;;;;;;;;;12.71;77.12;96862.63;30002;982;1880;-66
2021/10/02 03:13:03;;;;;;;;;;;;;;;12.71;77.12;96872.72;30002;982;1885;-66
2021/10/02 03:13:35;;;;;;;;;;;;;;;12.71;76.87;96868.09;30002;982;1859;-66
2021/10/02 03:14:10;;;;;;;;;;;;;;;12.70;77.00;96869.19;30002;982;1880;-65
2021/10/02 03:14:42;;;;;;;;;;;;;;;12.69;76.89;96856.69;30002;982;1859;-66
2021/10/02 03:15:16;;;;;;;;;;;;;;;12.68;77.39;96874.13;30002;983;1879;-67
2021/10/02 03:15:48;;;;;;;;;;;;;;;12.67;77.28;96872.53;30002;983;1880;-66
2021/10/02 03:16:21;;;;;;;;;;;;;;;12.65;77.09;96869.31;30002;983;1884;-65
2021/10/02 03:16:53;;;;;;;;;;;;;;;12.65;77.19;96869.31;30002;983;1880;-66
2021/10/02 03:17:26;;;;;;;;;;;;;;;12.64;76.84;96870.41;30002;983;1884;-66
2021/10/02 03:17:58;;;;;;;;;;;;;;;12.64;77.26;96873.12;30002;983;1880;-65
2021/10/02 03:18:31;;;;;;;;;;;;;;;12.65;77.26;96869.31;30002;983;1862;-66
2021/10/02 03:19:04;;;;;;;;;;;;;;;12.65;76.94;96871.22;30002;983;1854;-66
2021/10/02 03:19:36;;;;;;;;;;;;;;;12.64;76.93;96873.12;30002;982;1884;-65
2021/10/02 03:20:09;;;;;;;;;;;;;;;12.65;76.96;96879.38;30002;982;1880;-66
2021/10/02 03:20:41;;;;;;;;;;;;;;;12.63;76.89;96868.78;30002;982;1885;-65
2021/10/02 03:21:12;;;;;;;;;;;;;;;12.62;77.09;96869.91;30002;982;1880;-66
2021/10/02 03:21:45;;;;;;;;;;;;;;;12.62;77.09;96869.91;30002;982;1863;-65
2021/10/02 03:22:16;;;;;;;;;;;;;;;12.60;77.15;96866.69;30002;982;1876;-66
2021/10/02 03:22:49;;;;;;;;;;;;;;;12.60;77.28;96866.69;30002;983;1862;-66
2021/10/02 03:23:20;;;;;;;;;;;;;;;12.59;77.17;96865.06;30002;983;1875;-66
2021/10/02 03:23:52;;;;;;;;;;;;;;;12.59;76.89;96865.06;30002;983;1884;-66
2021/10/02 03:24:24;;;;;;;;;;;;;;;12.59;76.96;96870.53;30002;983;1858;-64
2021/10/02 03:24:56;;;;;;;;;;;;;;;12.59;77.15;96865.06;30002;983;1880;-64
2021/10/02 03:25:29;;;;;;;;;;;;;;;12.59;77.02;96867.78;30002;983;1880;-65
2021/10/02 03:26:01;;;;;;;;;;;;;;;12.58;76.91;96868.91;30002;983;1884;-65
2021/10/02 03:26:33;;;;;;;;;;;;;;;12.60;76.84;96871.31;30002;983;1880;-66
2021/10/02 03:27:07;;;;;;;;;;;;;;;12.59;77.20;96867.78;30002;982;1884;-65
2021/10/02 03:27:38;;;;;;;;;;;;;;;12.58;77.04;96863.47;30002;982;1880;-65
2021/10/02 03:28:09;;;;;;;;;;;;;;;12.59;76.89;96870.53;30002;982;1885;-65
2021/10/02 03:28:41;;;;;;;;;;;;;;;12.58;77.32;96868.91;30001;982;1880;-65
2021/10/02 03:29:13;;;;;;;;;;;;;;;12.57;77.24;96867.28;30002;982;1863;-68
2021/10/02 03:29:44;;;;;;;;;;;;;;;12.57;77.18;96867.28;30002;982;1854;-66
2021/10/02 03:30:15;;;;;;;;;;;;;;;12.57;76.97;96871.94;30001;983;1884;-66
2021/10/02 03:30:46;;;;;;;;;;;;;;;12.56;77.30;96870.31;30001;983;1880;-68
2021/10/02 03:31:18;;;;;;;;;;;;;;;12.56;77.26;96871.13;30001;983;1884;-64
2021/10/02 03:31:49;;;;;;;;;;;;;;;12.56;77.26;96859.44;30001;983;1880;-62
2021/10/02 03:32:22;;;;;;;;;;;;;;;12.56;77.05;96867.59;30001;983;1884;-65
2021/10/02 03:32:53;;;;;;;;;;;;;;;12.55;77.19;96872.25;30001;983;1880;-65
2021/10/02 03:33:24;;;;;;;;;;;;;;;12.56;77.41;96871.13;30001;983;1884;-65
2021/10/02 03:33:56;;;;;;;;;;;;;;;12.57;77.02;96871.94;30001;983;1880;-65
2021/10/02 03:34:27;;;;;;;;;;;;;;;12.58;77.12;96874.34;30001;982;1884;-66
2021/10/02 03:34:58;;;;;;;;;;;;;;;12.58;76.99;96871.62;30001;982;1858;-66
2021/10/02 03:35:29;;;;;;;;;;;;;;;12.58;77.23;96868.91;30001;982;1880;-66
2021/10/02 03:36:00;;;;;;;;;;;;;;;12.59;77.36;96870.53;30001;982;1880;-64
2021/10/02 03:36:31;;;;;;;;;;;;;;;12.58;77.09;96868.91;30001;982;1885;-65
2021/10/02 03:37:02;;;;;;;;;;;;;;;12.58;76.89;96874.34;30001;982;1859;-66
2021/10/02 03:37:33;;;;;;;;;;;;;;;12.58;77.26;96874.34;30001;983;1880;-66
2021/10/02 03:38:04;;;;;;;;;;;;;;;12.58;77.26;96873.53;30001;983;1880;-65
2021/10/02 03:38:36;;;;;;;;;;;;;;;12.57;77.19;96874.66;30001;983;1884;-65
2021/10/02 03:39:06;;;;;;;;;;;;;;;12.58;77.24;96873.53;30001;983;1858;-66
2021/10/02 03:39:37;;;;;;;;;;;;;;;12.58;77.35;96879.78;30001;983;1880;-65
2021/10/02 03:40:09;;;;;;;;;;;;;;;12.58;77.43;96879.00;30001;983;1880;-64
2021/10/02 03:40:40;;;;;;;;;;;;;;;12.58;77.04;96874.34;30001;983;1884;-67
2021/10/02 03:41:11;;;;;;;;;;;;;;;12.56;77.29;96873.84;30001;983;1880;-66
2021/10/02 03:41:42;;;;;;;;;;;;;;;12.57;77.05;96872.75;30001;983;1884;-65
2021/10/02 03:42:15;;;;;;;;;;;;;;;12.56;77.23;96876.56;30001;982;1858;-65
2021/10/02 03:42:47;;;;;;;;;;;;;;;12.55;77.28;96883.13;30001;982;1858;-66
2021/10/02 03:43:18;;;;;;;;;;;;;;;12.56;77.24;96876.56;30001;982;1880;-66
2021/10/02 03:43:49;;;;;;;;;;;;;;;12.54;77.26;96884.22;30001;982;1885;-65
2021/10/02 03:44:20;;;;;;;;;;;;;;;12.53;77.22;96877.19;30001;982;1858;-66
2021/10/02 03:44:51;;;;;;;;;;;;;;;12.54;77.63;96878.00;30001;982;1880;-65
2021/10/02 03:45:26;;;;;;;;;;;;;;;12.51;77.61;96873.97;30001;979;1880;-64
2021/10/02 03:45:58;;;;;;;;;;;;;;;12.51;78.11;96879.41;30001;983;1884;-64
2021/10/02 03:46:29;;;;;;;;;;;;;;;12.50;78.46;96874.25;30001;983;1880;-66
2021/10/02 03:46:59;;;;;;;;;;;;;;;12.50;78.28;96882.44;30001;983;1884;-67
2021/10/02 03:47:30;;;;;;;;;;;;;;;12.49;78.46;96883.53;30001;983;1880;-66
2021/10/02 03:48:01;;;;;;;;;;;;;;;12.48;79.20;96880.00;30001;983;1862;-65
2021/10/02 03:48:32;;;;;;;;;;;;;;;12.46;79.14;96884.16;30001;983;1876;-66
2021/10/02 03:49:04;;;;;;;;;;;;;;;12.45;78.66;96883.37;30001;983;1884;-61
2021/10/02 03:49:35;;;;;;;;;;;;;;;12.46;78.59;96881.44;30001;982;1880;-66
2021/10/02 03:50:07;;;;;;;;;;;;;;;12.44;78.42;96884.47;30001;982;1885;-66
2021/10/02 03:50:38;;;;;;;;;;;;;;;12.44;78.42;96878.22;30001;982;1880;-66
2021/10/02 03:51:08;;;;;;;;;;;;;;;12.47;78.46;96877.63;30001;982;1885;-66
2021/10/02 03:51:39;;;;;;;;;;;;;;;12.45;78.32;96875.19;30001;982;1880;-65
2021/10/02 03:52:10;;;;;;;;;;;;;;;12.46;78.06;96882.25;30001;983;1884;-66
2021/10/02 03:52:42;;;;;;;;;;;;;;;12.46;78.04;96884.97;30001;983;1880;-66
2021/10/02 03:53:13;;;;;;;;;;;;;;;12.47;78.29;96883.87;30001;983;1862;-65
2021/10/02 03:53:43;;;;;;;;;;;;;;;12.46;78.01;96887.69;30001;983;1853;-66
2021/10/02 03:54:14;;;;;;;;;;;;;;;12.46;78.21;96882.25;30002;983;1767;-62
2021/10/02 03:54:45;;;;;;;;;;;;;;;12.45;77.84;96880.66;30001;983;1875;-64
2021/10/02 03:55:16;;;;;;;;;;;;;;;12.45;78.13;96886.09;30001;983;1884;-66
2021/10/02 03:55:47;;;;;;;;;;;;;;;12.46;78.27;96871.38;30001;983;1880;-66
2021/10/02 03:56:18;;;;;;;;;;;;;;;12.47;77.96;96877.63;30001;983;1884;-66
2021/10/02 03:56:49;;;;;;;;;;;;;;;12.45;78.15;96880.66;30001;983;1880;-66
2021/10/02 03:57:19;;;;;;;;;;;;;;;12.46;77.82;96884.97;30001;982;1885;-65
2021/10/02 03:57:50;;;;;;;;;;;;;;;12.46;78.15;96878.72;30001;982;1880;-66
2021/10/02 03:58:21;;;;;;;;;;;;;;;12.48;78.25;96873.75;30001;982;1863;-65
2021/10/02 03:58:52;;;;;;;;;;;;;;;12.49;78.01;96872.66;30001;982;1876;-67
2021/10/02 03:59:23;;;;;;;;;;;;;;;12.49;77.79;96872.66;30001;983;1884;-66